Time;durP1;ratioP1;P1;durP2;ratioP2;P2;SDS_P1;SDS_P2;PMS_P1;PMS_P2;Temp;Humidity;BMP_temperature;BMP_pressure;BME280_temperature;BME280_humidity;BME280_pressure;Samples;Min_cycle;Max_cycle;Signal;HPM_P1;HPM_P2
2022/10/16 00:01:28;;;;;;;30.75;22.05;;;;;;;11.86;97.46;100437.06;1716498;83;21517;-73
2022/10/16 00:03:57;;;;;;;;;;;;;;;11.88;97.51;100429.95;1689105;84;21094;-74
2022/10/16 00:06:25;;;;;;;29.35;22.05;;;;;;;11.93;97.82;100436.34;1716579;83;20180;-73
2022/10/16 00:08:54;;;;;;;31.15;22.58;;;;;;;11.97;97.88;100435.27;1716740;83;21028;-81
2022/10/16 00:11:25;;;;;;;28.92;22.10;;;;;;;12.01;97.96;100432.93;1697586;83;21586;-73
2022/10/16 00:13:57;;;;;;;37.35;26.87;;;;;;;12.07;98.16;100431.34;1716728;83;21071;-77
2022/10/16 00:16:24;;;;;;;37.25;26.87;;;;;;;12.12;98.19;100433.33;1686209;84;21030;-73
2022/10/16 00:18:51;;;;;;;44.30;30.85;;;;;;;12.17;98.19;100431.36;1716736;83;21022;-74
2022/10/16 00:21:25;;;;;;;38.83;28.60;;;;;;;12.23;98.24;100430.23;1697616;83;21013;-81
2022/10/16 00:23:57;;;;;;;35.45;26.42;;;;;;;12.26;98.11;100431.41;1700634;84;21035;-77
2022/10/16 00:26:24;;;;;;;34.75;26.07;;;;;;;12.27;97.98;100429.17;1699483;84;21490;-81
2022/10/16 00:28:52;;;;;;;36.83;26.23;;;;;;;12.27;97.78;100416.87;1716611;83;21507;-73
2022/10/16 00:31:22;;;;;;;36.77;27.15;;;;;;;12.29;97.67;100424.70;1697492;83;21020;-79
2022/10/16 00:33:50;;;;;;;40.17;28.47;;;;;;;12.28;97.60;100419.92;1717023;83;20979;-74
2022/10/16 00:36:21;;;;;;;35.23;27.80;;;;;;;12.27;97.46;100426.08;1697534;83;21606;-74
2022/10/16 00:38:55;;;;;;;37.15;27.55;;;;;;;12.25;97.40;100421.37;1716760;83;21776;-73
2022/10/16 00:41:25;;;;;;;39.65;29.23;;;;;;;12.24;97.43;100424.90;1686169;85;21466;-82
2022/10/16 00:43:59;;;;;;;35.27;26.73;;;;;;;12.23;97.30;100422.36;1716912;83;21007;-74
2022/10/16 00:46:39;;;;;;;46.70;31.48;;;;;;;12.20;97.23;100417.23;1686263;85;21799;-73
2022/10/16 00:49:18;;;;;;;38.23;28.60;;;;;;;12.18;97.27;100414.66;1672870;85;21088;-73
2022/10/16 00:51:50;;;;;;;39.95;31.68;;;;;;;12.15;97.23;100427.09;1716846;83;21111;-73
2022/10/16 00:54:24;;;;;;;35.68;28.50;;;;;;;12.11;97.25;100422.87;1697665;83;21549;-74
2022/10/16 00:56:52;;;;;;;32.88;24.72;;;;;;;12.09;97.28;100426.05;1713447;83;21055;-73
2022/10/16 00:59:36;;;;;;;31.10;23.00;;;;;;;12.06;97.34;100427.02;1697465;83;21434;-74
2022/10/16 01:02:06;;;;;;;29.02;21.85;;;;;;;12.05;97.54;100430.12;1699306;84;21604;-73
2022/10/16 01:04:39;;;;;;;;;;;;;;;12.05;97.70;100432.75;1719425;83;21101;-74
2022/10/16 01:07:29;;;;;;;27.30;20.97;;;;;;;12.08;98.12;100442.23;1697512;83;20193;-73
2022/10/16 01:10:16;;;;;;;30.20;22.87;;;;;;;12.10;98.18;100443.50;1700400;84;21512;-73
2022/10/16 01:13:30;;;;;;;30.27;23.45;;;;;;;12.10;98.38;100446.98;1716452;83;21468;-73
2022/10/16 01:16:12;;;;;;;27.95;22.20;;;;;;;12.14;98.58;100450.32;1716432;83;21501;-73
2022/10/16 01:18:46;;;;;;;29.27;22.40;;;;;;;12.17;98.68;100451.06;1697511;83;21125;-73
2022/10/16 01:21:18;;;;;;;31.35;23.25;;;;;;;12.19;98.70;100444.41;1700144;84;21533;-73
2022/10/16 01:24:33;;;;;;;27.25;21.77;;;;;;;12.23;98.83;100440.75;1715981;83;21026;-73
2022/10/16 01:27:24;;;;;;;34.00;23.32;;;;;;;12.25;98.87;100440.23;1696579;83;20989;-73
2022/10/16 01:30:02;;;;;;;29.00;22.55;;;;;;;12.30;99.03;100442.17;1689642;84;21034;-81
2022/10/16 01:32:49;;;;;;;29.20;23.05;;;;;;;12.35;99.09;100440.67;1712767;83;21273;-78
2022/10/16 01:35:32;;;;;;;32.85;24.23;;;;;;;12.40;99.26;100444.80;1673470;84;21042;-82
2022/10/16 01:38:17;;;;;;;29.37;24.45;;;;;;;12.45;99.30;100445.46;1696809;84;21020;-74
2022/10/16 01:40:48;;;;;;;31.42;23.45;;;;;;;12.50;99.34;100445.27;1716413;83;21051;-80
2022/10/16 01:43:21;;;;;;;28.65;23.12;;;;;;;12.55;99.28;100443.73;1716722;83;21497;-73
2022/10/16 01:45:48;;;;;;;29.65;22.77;;;;;;;12.57;99.16;100446.69;1716424;83;21091;-73
2022/10/16 01:48:19;;;;;;;28.62;22.32;;;;;;;12.59;98.97;100455.83;1686186;85;21062;-73
2022/10/16 01:50:57;;;;;;;26.62;21.68;;;;;;;12.59;98.85;100454.52;1673167;85;20936;-74
2022/10/16 01:53:25;;;;;;;29.20;22.85;;;;;;;12.61;98.85;100457.91;1716276;83;21055;-74
2022/10/16 01:55:55;;;;;;;26.60;21.48;;;;;;;12.63;98.93;100451.66;1697659;83;21048;-73
2022/10/16 01:58:25;;;;;;;28.55;22.25;;;;;;;12.65;99.03;100454.23;1716616;83;21813;-74
2022/10/16 02:00:54;;;;;;;25.68;21.55;;;;;;;12.67;99.03;100453.25;1686456;85;20987;-82
2022/10/16 02:03:23;;;;;;;28.12;22.55;;;;;;;12.69;99.05;100455.80;1716550;83;21031;-73
2022/10/16 02:05:57;;;;;;;27.45;21.80;;;;;;;12.72;99.06;100464.89;1686577;85;21001;-73
2022/10/16 02:08:28;;;;;;;25.20;20.40;;;;;;;12.73;98.87;100469.22;1682261;83;21336;-73
2022/10/16 02:10:57;;;;;;;25.72;20.62;;;;;;;12.71;98.79;100465.80;1716315;83;21127;-80
2022/10/16 02:13:29;;;;;;;27.17;21.10;;;;;;;12.71;98.79;100472.37;1686107;85;21008;-73
2022/10/16 02:15:57;;;;;;;26.37;21.60;;;;;;;12.74;98.96;100476.17;1672923;84;21041;-73
2022/10/16 02:18:28;;;;;;;26.57;21.97;;;;;;;12.76;99.00;100477.43;1716468;83;21509;-73
2022/10/16 02:21:07;;;;;;;26.45;23.07;;;;;;;12.78;99.07;100475.59;1686323;84;21070;-73
2022/10/16 02:23:49;;;;;;;27.32;22.02;;;;;;;12.80;99.12;100477.20;1693041;84;21080;-80
2022/10/16 02:26:21;;;;;;;25.77;22.62;;;;;;;12.83;99.28;100476.22;1700001;84;21083;-75
2022/10/16 02:28:54;;;;;;;26.60;21.30;;;;;;;12.86;99.21;100478.73;1716982;82;20988;-73
2022/10/16 02:31:27;;;;;;;28.07;22.67;;;;;;;12.88;99.23;100479.50;1686257;84;21046;-73
2022/10/16 02:33:57;;;;;;;26.48;21.52;;;;;;;12.89;99.22;100474.64;1672803;85;21057;-73
2022/10/16 02:36:26;;;;;;;27.58;21.42;;;;;;;12.93;99.25;100474.88;1716648;83;21291;-82
2022/10/16 02:38:54;;;;;;;28.23;23.80;;;;;;;12.93;99.25;100474.88;1697514;84;21514;-79
2022/10/16 02:41:23;;;;;;;25.88;21.57;;;;;;;12.97;99.42;100470.33;1716395;83;21532;-74
2022/10/16 02:43:50;;;;;;;28.57;23.32;;;;;;;12.99;99.42;100476.38;1686351;85;21501;-73
2022/10/16 02:46:18;;;;;;;28.05;23.38;;;;;;;12.99;99.43;100471.97;1716518;83;21043;-77
2022/10/16 02:48:46;;;;;;;28.35;24.40;;;;;;;13.02;99.43;100471.82;1686416;84;21852;-73
2022/10/16 02:51:13;;;;;;;26.40;22.87;;;;;;;13.02;99.31;100474.45;1716551;83;20981;-72
2022/10/16 02:53:40;;;;;;;28.23;22.13;;;;;;;13.03;99.27;100470.91;1697408;83;20954;-76
2022/10/16 02:56:07;;;;;;;30.62;23.80;;;;;;;13.03;99.23;100472.70;1716607;83;21003;-78
2022/10/16 02:58:34;;;;;;;25.50;22.80;;;;;;;13.04;99.29;100474.39;1688733;83;21009;-73
2022/10/16 03:01:01;;;;;;;26.55;21.15;;;;;;;13.06;99.42;100472.56;1709408;83;21814;-73
2022/10/16 03:03:29;;;;;;;26.07;22.93;;;;;;;13.08;99.51;100469.37;1709712;84;20977;-73
2022/10/16 03:05:56;;;;;;;23.80;21.12;;;;;;;13.10;99.58;100469.69;1709531;84;21043;-73
2022/10/16 03:08:24;;;;;;;26.90;21.40;;;;;;;13.13;99.63;100472.64;1709505;84;21017;-73
2022/10/16 03:10:52;;;;;;;27.27;21.85;;;;;;;13.15;99.62;100467.70;1709579;84;21027;-72
2022/10/16 03:13:20;;;;;;;28.02;22.60;;;;;;;13.16;99.58;100468.11;1709528;84;21132;-73
2022/10/16 03:15:47;;;;;;;25.52;20.68;;;;;;;13.21;99.62;100481.51;1709520;84;21043;-73
2022/10/16 03:18:15;;;;;;;23.85;20.52;;;;;;;13.22;99.67;100478.81;1695763;84;21012;-73
2022/10/16 03:20:43;;;;;;;23.40;20.52;;;;;;;13.25;99.70;100484.41;1709614;84;21078;-81
2022/10/16 03:23:10;;;;;;;23.73;20.32;;;;;;;13.26;99.63;100479.08;1696099;84;21499;-72
2022/10/16 03:25:38;;;;;;;22.82;20.37;;;;;;;13.29;99.59;100482.88;1709640;84;21892;-73
2022/10/16 03:28:05;;;;;;;26.17;20.80;;;;;;;13.30;99.50;100485.05;1709778;84;20984;-80
2022/10/16 03:30:33;;;;;;;21.85;19.32;;;;;;;13.31;99.46;100484.14;1709637;84;21020;-73
2022/10/16 03:32:59;;;;;;;24.63;20.25;;;;;;;13.31;99.28;100492.89;1679701;85;21481;-74
2022/10/16 03:35:27;;;;;;;23.65;20.08;;;;;;;13.29;99.27;100485.52;1709553;83;21023;-73
2022/10/16 03:37:54;;;;;;;21.70;19.37;;;;;;;13.30;99.25;100481.98;1709756;84;22069;-72
2022/10/16 03:40:21;;;;;;;24.07;19.82;;;;;;;13.28;99.07;100486.45;1709421;84;21050;-72
2022/10/16 03:42:48;;;;;;;22.05;19.73;;;;;;;13.28;99.09;100488.23;1709810;84;21096;-72
2022/10/16 03:45:15;;;;;;;23.12;20.12;;;;;;;13.26;98.95;100491.39;1709576;84;21019;-77
2022/10/16 03:47:42;;;;;;;20.50;18.15;;;;;;;13.24;98.98;100497.16;1696148;84;21087;-73
2022/10/16 03:50:09;;;;;;;23.87;19.92;;;;;;;13.21;98.90;100502.56;1709609;84;21235;-73
2022/10/16 03:52:36;;;;;;;26.07;19.55;;;;;;;13.20;98.96;100507.45;1709486;84;21036;-75
2022/10/16 03:55:04;;;;;;;22.48;19.55;;;;;;;13.19;99.14;100498.70;1709784;84;21027;-73
2022/10/16 03:57:31;;;;;;;26.05;19.42;;;;;;;13.19;99.23;100506.59;1714057;83;21088;-79
2022/10/16 03:59:58;;;;;;;23.30;19.55;;;;;;;13.19;99.23;100507.92;1721121;83;21011;-82
2022/10/16 04:02:25;;;;;;;23.52;20.00;;;;;;;13.20;99.21;100512.71;1690768;84;21296;-72
2022/10/16 04:04:52;;;;;;;23.57;19.67;;;;;;;13.18;99.20;100521.52;1721159;83;20999;-73
2022/10/16 04:07:20;;;;;;;21.48;19.17;;;;;;;13.18;99.24;100527.25;1708368;84;21034;-73
2022/10/16 04:09:47;;;;;;;22.27;19.25;;;;;;;13.17;99.29;100525.08;1721466;83;20999;-73
2022/10/16 04:12:14;;;;;;;23.25;20.80;;;;;;;13.18;99.32;100526.77;1721206;83;21089;-80
2022/10/16 04:14:41;;;;;;;22.15;19.25;;;;;;;13.20;99.48;100528.50;1721407;83;21272;-73
2022/10/16 04:17:08;;;;;;;22.07;19.35;;;;;;;13.20;99.70;100525.41;1721050;83;20937;-73
2022/10/16 04:19:35;;;;;;;23.50;18.77;;;;;;;13.22;99.66;100520.93;1721306;83;21556;-73
2022/10/16 04:22:03;;;;;;;24.75;19.60;;;;;;;13.23;99.74;100523.94;1677305;84;21004;-73
2022/10/16 04:24:30;;;;;;;23.90;18.77;;;;;;;13.25;99.77;100531.78;1721387;83;21027;-73
2022/10/16 04:26:57;;;;;;;21.93;19.48;;;;;;;13.27;99.72;100536.52;1708404;84;21132;-73
2022/10/16 04:29:24;;;;;;;25.25;20.00;;;;;;;13.27;99.64;100532.58;1721281;83;21519;-73
2022/10/16 04:31:51;;;;;;;23.15;18.85;;;;;;;13.28;99.62;100529.89;1721034;83;21027;-80
2022/10/16 04:34:18;;;;;;;22.30;18.25;;;;;;;13.28;99.52;100526.41;1721363;83;21012;-73
2022/10/16 04:36:52;;;;;;;20.62;18.27;;;;;;;13.28;99.67;100528.57;1690881;84;21284;-73
2022/10/16 04:39:17;;;;;;;21.60;19.27;;;;;;;13.29;99.73;100526.31;1706982;83;22015;-78
2022/10/16 04:41:44;;;;;;;22.05;18.82;;;;;;;13.31;99.81;100523.16;1721277;83;21030;-73
2022/10/16 04:44:11;;;;;;;20.62;18.42;;;;;;;13.32;99.76;100520.91;1721169;83;21024;-73
2022/10/16 04:46:38;;;;;;;21.25;18.37;;;;;;;13.33;99.75;100520.44;1721431;83;21457;-73
2022/10/16 04:49:05;;;;;;;21.07;18.40;;;;;;;13.33;99.74;100525.70;1708371;84;21297;-73
2022/10/16 04:51:33;;;;;;;23.45;19.55;;;;;;;13.35;99.79;100531.30;1721457;83;21107;-82
2022/10/16 04:53:59;;;;;;;24.72;18.17;;;;;;;13.35;99.80;100534.39;1708278;84;21032;-73
2022/10/16 04:56:26;;;;;;;22.17;17.30;;;;;;;13.35;99.74;100539.66;1721335;83;21026;-74
2022/10/16 04:58:53;;;;;;;21.10;18.17;;;;;;;13.35;99.71;100539.66;1699462;83;20952;-74
2022/10/16 05:01:20;;;;;;;21.17;17.37;;;;;;;13.34;99.62;100538.81;1675017;84;21481;-72
2022/10/16 05:03:47;;;;;;;19.75;17.37;;;;;;;13.34;99.74;100544.08;1672382;84;21129;-72
2022/10/16 05:06:14;;;;;;;20.40;17.35;;;;;;;13.34;99.63;100547.17;1672640;84;21019;-71
2022/10/16 05:08:41;;;;;;;22.75;17.87;;;;;;;13.33;99.63;100542.37;1672503;84;21039;-72
2022/10/16 05:11:08;;;;;;;21.87;16.77;;;;;;;13.32;99.68;100537.17;1672604;84;21102;-71
2022/10/16 05:13:35;;;;;;;19.02;17.02;;;;;;;13.32;99.75;100540.65;1672225;84;21079;-77
2022/10/16 05:16:02;;;;;;;20.27;16.42;;;;;;;13.32;99.82;100538.02;1672817;84;21757;-75
2022/10/16 05:18:29;;;;;;;19.85;16.15;;;;;;;13.33;99.92;100537.11;1672206;84;21039;-72
2022/10/16 05:20:56;;;;;;;20.37;16.20;;;;;;;13.35;99.96;100543.14;1673064;84;21103;-81
2022/10/16 05:23:23;;;;;;;18.87;16.75;;;;;;;13.36;99.98;100550.59;1673041;84;20959;-72
2022/10/16 05:25:58;;;;;;;18.42;16.37;;;;;;;13.37;100.00;100554.46;1672599;84;21072;-73
2022/10/16 05:28:26;;;;;;;19.35;15.53;;;;;;;13.39;99.97;100558.36;1672265;84;21142;-71
2022/10/16 05:30:54;;;;;;;17.32;15.53;;;;;;;13.39;99.92;100567.10;1672522;84;21020;-72
2022/10/16 05:33:22;;;;;;;20.25;16.23;;;;;;;13.39;99.89;100564.94;1672209;84;21027;-71
2022/10/16 05:35:50;;;;;;;17.82;15.93;;;;;;;13.38;99.94;100568.03;1673158;84;21086;-72
2022/10/16 05:38:18;;;;;;;20.20;16.15;;;;;;;13.41;99.89;100567.48;1672561;84;22198;-73
2022/10/16 05:40:52;;;;;;;16.82;14.05;;;;;;;13.41;99.90;100571.43;1672623;84;21130;-72
2022/10/16 05:43:20;;;;;;;15.93;14.23;;;;;;;13.42;99.95;100571.84;1672484;84;21544;-71
2022/10/16 05:45:58;;;;;;;17.12;15.08;;;;;;;13.42;100.00;100570.05;1672484;84;21047;-74
2022/10/16 05:48:26;;;;;;;16.67;14.85;;;;;;;13.44;100.00;100577.44;1671980;84;21035;-70
2022/10/16 05:51:03;;;;;;;15.10;13.50;;;;;;;13.46;100.00;100582.14;1672464;84;21252;-69
2022/10/16 05:53:33;;;;;;;16.40;13.88;;;;;;;13.48;100.00;100575.50;1643673;86;21147;-72
2022/10/16 05:56:00;;;;;;;14.83;13.10;;;;;;;13.50;100.00;100581.56;1672347;84;21039;-73
2022/10/16 05:58:36;;;;;;;16.60;13.85;;;;;;;13.50;99.99;100590.31;1684502;83;21047;-73
2022/10/16 06:01:07;;;;;;;16.05;13.68;;;;;;;13.52;100.00;100594.17;1708280;84;21032;-77
2022/10/16 06:03:35;;;;;;;15.50;13.58;;;;;;;13.54;100.00;100595.81;1721030;83;20992;-74
2022/10/16 06:06:17;;;;;;;15.25;13.60;;;;;;;13.55;100.00;100605.44;1704474;83;21225;-74
2022/10/16 06:08:46;;;;;;;17.25;13.08;;;;;;;13.57;100.00;100602.72;1680904;84;21026;-73
2022/10/16 06:11:21;;;;;;;15.15;13.30;;;;;;;13.60;100.00;100607.84;1680697;84;21386;-73
2022/10/16 06:13:54;;;;;;;14.90;12.55;;;;;;;13.64;100.00;100605.94;1681365;84;21456;-78
2022/10/16 06:16:21;;;;;;;16.77;12.95;;;;;;;13.67;100.00;100603.16;1681782;84;21049;-83
2022/10/16 06:18:50;;;;;;;12.95;11.55;;;;;;;13.70;99.97;100594.64;1681735;84;22121;-74
2022/10/16 06:21:24;;;;;;;14.28;11.93;;;;;;;13.72;99.90;100602.48;1681776;84;21042;-73
2022/10/16 06:23:52;;;;;;;12.13;10.78;;;;;;;13.75;99.94;100605.83;1681686;84;21564;-75
2022/10/16 06:26:23;;;;;;;11.78;10.30;;;;;;;13.79;99.89;100610.48;1681812;84;21037;-74
2022/10/16 06:28:50;;;;;;;12.10;10.75;;;;;;;13.80;99.75;100613.05;1681739;84;21323;-84
2022/10/16 06:31:18;;;;;;;12.80;11.40;;;;;;;13.84;99.73;100622.50;1681909;84;21859;-73
2022/10/16 06:33:49;;;;;;;13.95;11.35;;;;;;;13.88;99.69;100625.84;1681682;84;21018;-74
2022/10/16 06:36:16;;;;;;;11.35;10.15;;;;;;;13.89;99.63;100617.03;1681061;84;21030;-75
2022/10/16 06:38:44;;;;;;;10.70;9.58;;;;;;;13.92;99.61;100619.52;1681883;84;26585;-85
2022/10/16 06:41:15;;;;;;;12.18;9.68;;;;;;;13.95;99.59;100622.00;1682132;84;21045;-73
2022/10/16 06:43:44;;;;;;;11.48;10.03;;;;;;;13.99;99.58;100624.87;1683673;84;21803;-82
2022/10/16 06:46:15;;;;;;;11.60;9.48;;;;;;;14.04;99.48;100628.14;1721198;83;21082;-74
2022/10/16 06:48:43;;;;;;;12.60;9.63;;;;;;;14.10;99.44;100634.91;1721136;83;21015;-74
2022/10/16 06:51:13;;;;;;;12.63;9.80;;;;;;;14.14;99.33;100636.95;1721346;83;21444;-74
2022/10/16 06:53:44;;;;;;;12.05;9.58;;;;;;;14.15;99.13;100636.01;1721006;83;20983;-85
2022/10/16 06:56:15;;;;;;;10.58;8.75;;;;;;;14.16;99.08;100639.02;1704273;83;21946;-73
2022/10/16 06:58:42;;;;;;;13.65;11.90;;;;;;;14.21;99.04;100635.70;1718805;83;21055;-74
2022/10/16 07:01:11;;;;;;;14.55;12.23;;;;;;;14.28;99.10;100637.13;1686059;85;21035;-74
2022/10/16 07:03:42;;;;;;;15.18;13.18;;;;;;;14.36;99.13;100641.56;1716649;83;21027;-73
2022/10/16 07:06:13;;;;;;;12.55;10.75;;;;;;;14.45;99.07;100648.17;1716365;83;21082;-77
2022/10/16 07:08:43;;;;;;;12.88;10.60;;;;;;;14.53;99.14;100640.77;1697623;83;21208;-73
2022/10/16 07:11:15;;;;;;;14.38;11.73;;;;;;;14.61;99.11;100641.23;1716288;83;20995;-73
2022/10/16 07:13:45;;;;;;;19.75;12.58;;;;;;;14.67;98.93;100641.40;1686722;85;20904;-82
2022/10/16 07:16:14;;;;;;;;;;;;;;;14.72;98.80;100647.30;1718972;83;21439;-73
2022/10/16 07:18:45;;;;;;;13.07;10.43;;;;;;;14.75;98.65;100652.89;1716980;83;20656;-73
2022/10/16 07:21:20;;;;;;;9.03;6.75;;;;;;;14.78;98.67;100651.41;1716467;83;21135;-73
2022/10/16 07:23:56;;;;;;;9.70;8.55;;;;;;;14.84;98.78;100653.27;1716607;83;21026;-73
2022/10/16 07:26:25;;;;;;;7.58;6.75;;;;;;;14.94;98.82;100657.63;1716376;83;21885;-73
2022/10/16 07:28:53;;;;;;;6.67;5.97;;;;;;;15.02;98.70;100663.81;1716799;83;21009;-73
2022/10/16 07:31:21;;;;;;;6.62;5.90;;;;;;;15.10;98.67;100669.55;1716493;83;21011;-74
2022/10/16 07:33:48;;;;;;;20.65;12.73;;;;;;;15.18;98.53;100667.37;1716829;83;21106;-73
2022/10/16 07:36:17;;;;;;;9.15;7.65;;;;;;;15.30;98.47;100668.55;1716385;83;21058;-77
2022/10/16 07:38:46;;;;;;;6.20;5.58;;;;;;;15.42;98.29;100670.52;1716858;83;21005;-84
2022/10/16 07:41:16;;;;;;;8.95;5.78;;;;;;;15.53;98.09;100674.77;1716563;83;21011;-73
2022/10/16 07:43:52;;;;;;;6.58;4.62;;;;;;;15.75;97.74;100680.27;1716800;83;21111;-73
2022/10/16 07:46:21;;;;;;;7.70;6.60;;;;;;;15.75;97.74;100680.27;1715832;83;21741;-73
2022/10/16 07:48:49;;;;;;;15.00;7.97;;;;;;;15.89;97.56;100679.04;1716514;83;21051;-73
2022/10/16 07:51:19;;;;;;;12.13;7.00;;;;;;;15.98;97.38;100673.71;1716544;83;21027;-74
2022/10/16 07:53:47;;;;;;;14.95;7.72;;;;;;;16.06;97.17;100667.53;1691729;84;21036;-84
2022/10/16 07:56:17;;;;;;;8.98;6.40;;;;;;;16.11;96.72;100667.28;1716470;83;21421;-73
2022/10/16 07:58:45;;;;;;;9.80;5.97;;;;;;;16.08;96.43;100668.31;1716862;83;21526;-73
2022/10/16 08:01:15;;;;;;;7.35;5.50;;;;;;;16.08;96.21;100669.62;1710516;83;21501;-85
2022/10/16 08:03:46;;;;;;;6.95;5.03;;;;;;;16.07;96.10;100666.58;1707943;83;21979;-73
2022/10/16 08:06:14;;;;;;;9.08;6.22;;;;;;;16.06;96.09;100668.38;1716477;83;21485;-74
2022/10/16 08:08:41;;;;;;;5.75;4.03;;;;;;;16.11;96.04;100676.54;1716739;83;21048;-73
2022/10/16 08:11:08;;;;;;;4.25;3.83;;;;;;;16.17;96.25;100674.39;1716449;83;21952;-73
2022/10/16 08:13:36;;;;;;;4.95;4.42;;;;;;;16.27;96.33;100686.17;1716704;83;21063;-74
2022/10/16 08:16:07;;;;;;;4.55;4.15;;;;;;;16.41;96.35;100687.19;1716481;83;21066;-76
2022/10/16 08:18:40;;;;;;;5.20;4.70;;;;;;;16.54;96.04;100686.84;1717039;83;21028;-73
2022/10/16 08:21:16;;;;;;;5.85;5.08;;;;;;;16.67;95.96;100688.33;1716462;83;21277;-75
2022/10/16 08:23:44;;;;;;;8.25;5.47;;;;;;;16.77;95.75;100682.93;1716680;83;21538;-73
2022/10/16 08:26:13;;;;;;;4.72;4.22;;;;;;;16.80;95.08;100687.20;1716403;83;21482;-85
2022/10/16 08:28:40;;;;;;;6.62;4.75;;;;;;;16.82;94.65;100689.25;1716936;83;21072;-74
2022/10/16 08:31:14;;;;;;;4.95;4.45;;;;;;;16.84;94.49;100693.52;1716636;83;21011;-74
2022/10/16 08:33:46;;;;;;;5.00;4.50;;;;;;;16.91;94.68;100700.66;1716749;83;22029;-85
2022/10/16 08:36:14;;;;;;;4.75;4.33;;;;;;;17.05;94.57;100705.98;1716515;83;21117;-74
2022/10/16 08:38:42;;;;;;;7.05;5.00;;;;;;;17.20;94.43;100716.13;1701234;83;21028;-73
2022/10/16 08:41:50;;;;;;;5.20;4.70;;;;;;;17.36;94.58;100718.72;1716627;83;20943;-73
2022/10/16 08:44:48;;;;;;;6.40;5.78;;;;;;;17.56;94.55;100721.00;1716774;83;21015;-75
2022/10/16 08:47:38;;;;;;;9.68;6.40;;;;;;;17.82;93.76;100716.80;1686307;84;21031;-81
2022/10/16 08:50:15;;;;;;;6.58;5.20;;;;;;;17.91;93.05;100709.22;1687263;84;21393;-84
2022/10/16 08:52:45;;;;;;;5.60;5.00;;;;;;;18.07;92.78;100711.28;1716484;83;21060;-73
2022/10/16 08:55:35;;;;;;;5.05;4.65;;;;;;;18.21;92.35;100710.41;1716722;83;28159;-78
2022/10/16 08:58:16;;;;;;;6.60;5.55;;;;;;;18.38;92.14;100713.30;1716234;83;21076;-77
2022/10/16 09:00:48;;;;;;;4.80;4.30;;;;;;;18.57;91.77;100710.27;1716445;83;21033;-73
2022/10/16 09:03:53;;;;;;;7.72;5.17;;;;;;;18.76;91.65;100712.60;1715795;83;21964;-73
2022/10/16 09:06:34;;;;;;;8.90;6.00;;;;;;;18.93;91.10;100705.23;1716378;83;21024;-74
2022/10/16 09:09:42;;;;;;;7.20;4.97;;;;;;;19.13;90.45;100711.00;1716850;83;21037;-77
2022/10/16 09:12:39;;;;;;;4.10;3.70;;;;;;;19.22;89.62;100714.84;1715758;83;21016;-74
2022/10/16 09:15:36;;;;;;;5.22;3.70;;;;;;;19.41;89.63;100722.41;1605219;89;21082;-75
2022/10/16 09:18:38;;;;;;;4.65;4.10;;;;;;;19.60;88.89;100719.69;1604825;89;21104;-75
2022/10/16 09:21:25;;;;;;;4.15;3.65;;;;;;;19.82;88.51;100719.06;1597167;89;21111;-73
2022/10/16 09:23:56;;;;;;;3.67;3.37;;;;;;;19.98;87.60;100717.96;1605065;89;21485;-73
2022/10/16 09:26:23;;;;;;;4.00;3.60;;;;;;;20.10;87.13;100715.77;1605187;89;21105;-74
2022/10/16 09:28:54;;;;;;;3.50;3.20;;;;;;;20.39;87.23;100716.78;1605119;89;21046;-73
2022/10/16 09:31:23;;;;;;;3.80;3.45;;;;;;;20.61;86.18;100713.43;1604938;89;21194;-84
2022/10/16 09:34:00;;;;;;;3.13;2.93;;;;;;;20.73;85.57;100708.55;1605156;89;21081;-73
2022/10/16 09:36:31;;;;;;;3.35;2.85;;;;;;;20.84;84.67;100713.04;1605240;89;21093;-74
2022/10/16 09:39:08;;;;;;;2.85;2.65;;;;;;;20.91;84.40;100709.80;1578290;90;21058;-73
2022/10/16 09:41:41;;;;;;;4.12;3.70;;;;;;;21.08;84.11;100717.00;1578679;90;21127;-78
2022/10/16 09:44:26;;;;;;;4.10;2.98;;;;;;;21.12;83.23;100706.50;1604965;89;21137;-78
2022/10/16 09:47:12;;;;;;;3.33;3.02;;;;;;;21.15;82.92;100719.09;1577936;90;21004;-73
2022/10/16 09:49:55;;;;;;;4.55;3.65;;;;;;;21.24;82.68;100713.54;1604956;89;21062;-74
2022/10/16 09:52:23;;;;;;;3.15;2.85;;;;;;;21.36;81.89;100721.06;1667326;83;22527;-73
2022/10/16 09:55:00;;;;;;;3.00;2.60;;;;;;;21.29;81.46;100726.52;1704517;83;21516;-74
2022/10/16 09:57:29;;;;;;;5.58;3.40;;;;;;;21.11;80.98;100728.27;1686185;85;21328;-73
2022/10/16 09:59:59;;;;;;;2.85;2.60;;;;;;;21.04;80.71;100738.20;1716410;83;20931;-73
2022/10/16 10:02:37;;;;;;;4.85;3.30;;;;;;;21.09;80.47;100742.22;1716514;83;21028;-81
2022/10/16 10:05:08;;;;;;;3.27;2.50;;;;;;;21.32;80.87;100748.95;1716576;83;21463;-84
2022/10/16 10:07:40;;;;;;;3.67;2.65;;;;;;;21.70;80.73;100739.81;1715104;83;21551;-73
2022/10/16 10:10:13;;;;;;;2.77;2.58;;;;;;;22.07;80.17;100737.76;1716429;83;21144;-74
2022/10/16 10:12:41;;;;;;;3.75;2.50;;;;;;;22.52;80.08;100729.69;1715199;83;21542;-82
2022/10/16 10:15:18;;;;;;;5.45;3.12;;;;;;;22.81;79.49;100729.97;1716520;83;21477;-74
2022/10/16 10:17:53;;;;;;;5.45;2.58;;;;;;;22.97;78.73;100727.37;1686260;84;21448;-74
2022/10/16 10:20:37;;;;;;;3.33;3.02;;;;;;;23.02;77.93;100727.34;1715847;83;20997;-81
2022/10/16 10:23:26;;;;;;;2.80;2.60;;;;;;;23.22;77.35;100725.64;1716393;83;21118;-74
2022/10/16 10:26:13;;;;;;;3.08;2.83;;;;;;;23.06;76.41;100726.13;1716743;83;21011;-74
2022/10/16 10:29:16;;;;;;;3.90;2.75;;;;;;;22.66;75.33;100724.05;1716289;83;21032;-74
2022/10/16 10:32:09;;;;;;;5.92;2.95;;;;;;;22.31;75.05;100732.31;1716084;83;21016;-77
2022/10/16 10:34:48;;;;;;;4.30;2.85;;;;;;;22.12;75.46;100734.23;1716488;83;21034;-77
2022/10/16 10:37:50;;;;;;;2.63;2.43;;;;;;;22.09;75.76;100730.48;1715959;83;21779;-86
2022/10/16 10:40:43;;;;;;;3.02;2.08;;;;;;;22.11;75.60;100731.68;1716582;83;21008;-74
2022/10/16 10:43:41;;;;;;;2.30;2.10;;;;;;;22.11;75.44;100734.34;1686467;84;21031;-73
2022/10/16 10:46:36;;;;;;;2.08;1.82;;;;;;;21.99;75.07;100729.02;1686948;84;21030;-82
2022/10/16 10:49:15;;;;;;;3.37;1.90;;;;;;;;;;1716671;83;21503;-73
2022/10/16 10:52:28;;;;;;;3.58;1.98;;;;;;;22.15;74.99;100731.81;1716359;83;21591;-81
2022/10/16 10:55:34;;;;;;;3.87;1.82;;;;;;;22.65;74.91;100715.69;1715661;83;21453;-73
2022/10/16 10:58:39;;;;;;;2.47;2.27;;;;;;;23.14;74.53;100719.63;1636104;87;21009;-74
2022/10/16 11:01:17;;;;;;;2.58;2.35;;;;;;;23.33;74.16;100716.70;1635892;87;21057;-74
2022/10/16 11:04:20;;;;;;;2.67;2.08;;;;;;;23.29;73.19;100726.83;1678141;84;21019;-83
2022/10/16 11:06:57;;;;;;;2.92;2.47;;;;;;;23.16;72.48;100722.16;1695698;84;21131;-75
2022/10/16 11:09:35;;;;;;;3.77;2.17;;;;;;;22.93;72.04;100730.27;1696750;84;21030;-73
2022/10/16 11:12:21;;;;;;;3.42;2.47;;;;;;;22.77;72.16;100732.52;1696908;84;21536;-82
2022/10/16 11:15:16;;;;;;;2.87;2.17;;;;;;;22.62;72.03;100732.47;1696089;84;21018;-73
2022/10/16 11:18:08;;;;;;;3.12;2.17;;;;;;;22.42;71.80;100740.75;1697117;84;21022;-73
2022/10/16 11:20:48;;;;;;;2.10;1.90;;;;;;;22.20;71.65;100745.19;1696951;84;21108;-73
2022/10/16 11:23:29;;;;;;;3.08;2.33;;;;;;;21.98;71.66;100742.02;1697045;84;21030;-73
2022/10/16 11:26:02;;;;;;;2.58;2.37;;;;;;;21.81;72.01;100742.52;1696944;84;21511;-73
2022/10/16 11:28:52;;;;;;;2.55;2.17;;;;;;;21.72;72.37;100741.87;1697270;84;21506;-73
2022/10/16 11:31:37;;;;;;;3.05;2.70;;;;;;;21.65;72.68;100738.01;1696901;84;21221;-78
2022/10/16 11:34:17;;;;;;;3.72;2.47;;;;;;;21.61;72.78;100736.89;1709625;83;21142;-74
2022/10/16 11:36:55;;;;;;;3.27;2.62;;;;;;;21.59;72.73;100744.19;1704908;83;21594;-73
2022/10/16 11:39:28;;;;;;;2.90;2.60;;;;;;;21.67;72.91;100750.72;1711479;83;21084;-74
2022/10/16 11:42:03;;;;;;;4.28;2.90;;;;;;;21.69;72.91;100731.45;1716588;83;21467;-73
2022/10/16 11:44:44;;;;;;;2.83;2.60;;;;;;;21.72;73.04;100747.22;1716783;83;21026;-74
2022/10/16 11:47:37;;;;;;;5.92;2.45;;;;;;;21.69;73.00;100754.12;1686341;84;21285;-74